createdAt,value
2018-04-22T00:01:39.420Z,74.40
2018-04-22T00:04:15.072Z,74.70
2018-04-22T00:06:50.722Z,74.50
2018-04-22T00:09:25.755Z,74.40
2018-04-22T00:12:00.927Z,74.20
2018-04-22T00:14:35.725Z,75.90
2018-04-22T00:17:10.729Z,75.90
2018-04-22T00:19:45.615Z,74.30
2018-04-22T00:22:21.239Z,74.10
2018-04-22T00:24:56.071Z,74.30
2018-04-22T00:27:31.617Z,73.90
2018-04-22T00:30:06.855Z,73.50
2018-04-22T00:32:42.096Z,73.90
2018-04-22T00:35:17.483Z,77.50
2018-04-22T00:37:52.573Z,79.00
2018-04-22T00:40:27.619Z,81.30
2018-04-22T00:43:02.644Z,82.00
2018-04-22T00:45:39.113Z,82.90
2018-04-22T00:48:14.487Z,82.80
2018-04-22T00:50:49.810Z,83.10
2018-04-22T00:53:24.773Z,83.40
2018-04-22T00:55:59.867Z,83.60
2018-04-22T00:58:34.936Z,84.20
2018-04-22T01:01:09.895Z,84.60
2018-04-22T01:03:45.997Z,85.70
2018-04-22T01:06:21.143Z,85.70
2018-04-22T01:08:55.965Z,85.90
2018-04-22T01:11:30.900Z,86.00
2018-04-22T01:14:07.169Z,85.90
2018-04-22T01:16:42.406Z,85.70
2018-04-22T01:19:17.234Z,86.20
2018-04-22T01:21:52.781Z,86.30
2018-04-22T01:24:28.430Z,86.30
2018-04-22T01:27:04.502Z,86.80
2018-04-22T01:29:39.322Z,86.20
2018-04-22T01:32:14.561Z,86.30
2018-04-22T01:34:49.397Z,86.20
2018-04-22T01:37:24.845Z,85.80
2018-04-22T01:40:00.667Z,82.20
2018-04-22T01:42:37.164Z,85.90
2018-04-22T01:45:12.405Z,85.90
2018-04-22T01:47:47.642Z,86.50
2018-04-22T01:50:22.882Z,87.20
2018-04-22T01:52:58.533Z,87.60
2018-04-22T01:55:33.711Z,87.60
2018-04-22T01:58:09.420Z,87.50
2018-04-22T02:00:45.687Z,87.10
2018-04-22T02:03:20.867Z,87.10
2018-04-22T02:05:56.715Z,85.90
2018-04-22T02:08:32.772Z,84.80
2018-04-22T02:11:07.672Z,84.70
2018-04-22T02:13:42.911Z,85.80
2018-04-22T02:16:17.948Z,86.40
2018-04-22T02:18:52.983Z,85.80
2018-04-22T02:21:28.018Z,84.00
2018-04-22T02:24:02.845Z,79.90
2018-04-22T02:26:37.881Z,80.70
2018-04-22T02:29:12.712Z,80.10
2018-04-22T02:31:47.744Z,80.00
2018-04-22T02:34:22.579Z,79.80
2018-04-22T02:36:57.406Z,79.40
2018-04-22T02:39:32.439Z,78.80
2018-04-22T02:42:07.833Z,78.90
2018-04-22T02:44:42.918Z,78.90
2018-04-22T02:47:18.677Z,79.10
2018-04-22T02:49:53.809Z,79.10
2018-04-22T02:52:29.252Z,78.50
2018-04-22T02:55:04.441Z,79.10
2018-04-22T02:57:39.325Z,78.80
2018-04-22T03:00:14.973Z,79.20
2018-04-22T03:02:50.086Z,79.30
2018-04-22T03:05:25.251Z,79.10
2018-04-22T03:08:00.690Z,78.90
2018-04-22T03:10:36.953Z,78.70
2018-04-22T03:13:12.500Z,78.60
2018-04-22T03:15:48.260Z,78.20
2018-04-22T03:18:24.623Z,78.20
2018-04-22T03:21:00.019Z,78.60
2018-04-22T03:23:35.109Z,78.90
2018-04-22T03:26:09.928Z,78.40
2018-04-22T03:28:45.476Z,78.30
2018-04-22T03:31:20.592Z,78.00
2018-04-22T03:33:57.186Z,77.40
2018-04-22T03:36:32.032Z,77.30
2018-04-22T03:39:07.266Z,77.60
2018-04-22T03:41:42.311Z,77.20
2018-04-22T03:44:17.331Z,77.30
2018-04-22T03:46:52.054Z,78.10
2018-04-22T03:49:27.300Z,77.10
2018-04-22T03:52:03.567Z,76.50
2018-04-22T03:54:39.212Z,77.00
2018-04-22T03:57:14.262Z,76.70
2018-04-22T03:59:49.483Z,77.70
2018-04-22T04:02:25.347Z,77.90
2018-04-22T04:05:01.508Z,77.90
2018-04-22T04:07:37.156Z,77.80
2018-04-22T04:10:12.081Z,77.90
2018-04-22T04:12:47.130Z,78.10
2018-04-22T04:15:23.121Z,78.50
2018-04-22T04:21:11.251Z,77.30
2018-04-22T04:27:20.102Z,78.30
2018-04-22T04:29:54.816Z,80.10
2018-04-22T04:32:30.670Z,83.20
2018-04-22T04:35:06.728Z,84.10
2018-04-22T04:37:41.765Z,85.80
2018-04-22T04:40:18.000Z,87.30
2018-04-22T04:42:54.127Z,83.20
2018-04-22T04:45:28.918Z,83.10
2018-04-22T04:48:06.616Z,80.10
2018-04-22T04:50:42.264Z,79.50
2018-04-22T04:53:17.247Z,78.50
2018-04-22T04:55:52.304Z,78.50
2018-04-22T04:58:27.377Z,78.40
2018-04-22T05:01:02.304Z,77.80
2018-04-22T05:03:37.340Z,77.70
2018-04-22T05:06:12.377Z,77.90
2018-04-22T05:08:47.919Z,76.30
2018-04-22T05:11:23.362Z,76.30
2018-04-22T05:13:59.114Z,76.70
2018-04-22T05:16:34.967Z,76.40
2018-04-22T05:19:10.822Z,76.50
2018-04-22T05:21:45.653Z,76.60
2018-04-22T05:24:20.603Z,76.40
2018-04-22T05:26:57.059Z,76.30
2018-04-22T05:29:32.295Z,76.20
2018-04-22T05:32:07.333Z,76.80
2018-04-22T05:34:43.798Z,76.00
2018-04-22T05:37:18.835Z,76.00
2018-04-22T05:39:53.667Z,75.60
2018-04-22T05:42:28.704Z,76.00
2018-04-22T05:45:04.350Z,75.70
2018-04-22T05:47:39.594Z,76.40
2018-04-22T05:50:14.834Z,76.40
2018-04-22T05:52:51.094Z,75.40
2018-04-22T05:55:26.952Z,75.20
2018-04-22T05:58:02.391Z,75.00
2018-04-22T06:00:37.429Z,74.50
2018-04-22T06:03:12.667Z,74.20
2018-04-22T06:05:47.704Z,74.60
2018-04-22T06:08:22.738Z,74.70
2018-04-22T06:10:58.185Z,74.90
2018-04-22T06:13:33.420Z,75.50
2018-04-22T06:16:08.253Z,74.30
2018-04-22T06:18:43.905Z,73.40
2018-04-22T06:21:19.143Z,73.40
2018-04-22T06:23:54.072Z,73.30
2018-04-22T06:26:30.234Z,73.10
2018-04-22T06:29:06.601Z,73.90
2018-04-22T06:31:41.734Z,73.30
2018-04-22T06:34:16.576Z,73.70
2018-04-22T06:36:51.504Z,73.70
2018-04-22T06:39:26.335Z,73.20
2018-04-22T06:42:01.573Z,73.50
2018-04-22T06:44:36.402Z,73.80
2018-04-22T06:47:11.131Z,73.30
2018-04-22T06:49:45.960Z,73.40
2018-04-22T06:52:21.176Z,73.00
2018-04-22T06:54:56.135Z,72.10
2018-04-22T06:57:31.716Z,70.90
2018-04-22T07:00:07.225Z,70.80
2018-04-22T07:02:42.060Z,70.50
2018-04-22T07:05:17.302Z,70.40
2018-04-22T07:07:52.884Z,70.50
2018-04-22T07:10:28.398Z,69.80
2018-04-22T07:13:03.631Z,69.70
2018-04-22T07:15:38.871Z,69.10
2018-04-22T07:18:13.907Z,68.50
2018-04-22T07:20:48.940Z,68.60
2018-04-22T07:23:24.183Z,68.30
2018-04-22T07:25:59.626Z,67.60
2018-04-22T07:28:35.684Z,69.10
2018-04-22T07:31:10.526Z,68.80
2018-04-22T07:33:45.534Z,69.10
2018-04-22T07:36:21.225Z,67.70
2018-04-22T07:38:57.059Z,67.30
2018-04-22T07:41:31.886Z,67.40
2018-04-22T07:44:06.716Z,67.80
2018-04-22T07:46:41.339Z,66.10
2018-04-22T07:49:16.373Z,64.00
2018-04-22T07:51:51.209Z,63.10
2018-04-22T07:54:26.081Z,61.80
2018-04-22T07:57:01.629Z,60.40
2018-04-22T07:59:36.825Z,60.30
2018-04-22T08:02:11.754Z,58.60
2018-04-22T08:04:46.590Z,59.30
2018-04-22T08:07:21.423Z,60.50
2018-04-22T08:09:56.861Z,62.10
2018-04-22T08:12:31.727Z,60.80
2018-04-22T08:15:07.145Z,62.10
2018-04-22T08:17:42.684Z,63.60
2018-04-22T08:20:17.821Z,64.70
2018-04-22T08:22:52.861Z,65.20
2018-04-22T08:25:28.095Z,65.70
2018-04-22T08:28:03.136Z,65.70
2018-04-22T08:30:38.384Z,66.80
2018-04-22T08:33:13.655Z,67.40
2018-04-22T08:35:48.647Z,67.30
2018-04-22T08:38:24.293Z,68.20
2018-04-22T08:40:59.331Z,68.20
2018-04-22T08:43:34.160Z,69.20
2018-04-22T08:46:09.196Z,69.60
2018-04-22T08:48:44.026Z,70.00
2018-04-22T08:51:19.881Z,70.70
2018-04-22T08:53:55.532Z,70.40
2018-04-22T08:56:30.882Z,70.30
2018-04-22T08:59:06.726Z,69.70
2018-04-22T09:01:42.380Z,70.60
2018-04-22T09:04:17.383Z,70.00
2018-04-22T09:06:52.243Z,67.80
2018-04-22T09:09:27.284Z,66.70
2018-04-22T09:12:02.108Z,68.80
2018-04-22T09:14:37.349Z,70.00
2018-04-22T09:17:13.202Z,69.50
2018-04-22T09:19:48.033Z,68.30
2018-04-22T09:22:23.003Z,69.10
2018-04-22T09:24:59.124Z,72.20
2018-04-22T09:27:34.773Z,71.90
2018-04-22T09:30:09.811Z,71.50
2018-04-22T09:32:44.848Z,71.00
2018-04-22T09:35:20.083Z,71.60
2018-04-22T09:37:55.429Z,72.30
2018-04-22T09:40:30.871Z,72.90
2018-04-22T09:43:05.736Z,73.10
2018-04-22T09:45:41.569Z,74.20
2018-04-22T09:48:17.015Z,74.00
2018-04-22T09:50:52.056Z,73.70
2018-04-22T09:53:27.021Z,73.70
2018-04-22T09:56:02.106Z,74.20
2018-04-22T09:58:37.088Z,73.80
2018-04-22T10:01:18.327Z,74.40
2018-04-22T10:03:56.844Z,73.40
2018-04-22T10:06:31.885Z,72.60
2018-04-22T10:09:06.910Z,73.40
2018-04-22T10:11:42.561Z,73.20
2018-04-22T10:14:17.595Z,71.80
2018-04-22T10:16:53.348Z,70.50
2018-04-22T10:19:28.174Z,70.60
2018-04-22T10:22:03.927Z,69.20
2018-04-22T10:24:38.763Z,70.10
2018-04-22T10:27:13.644Z,69.80
2018-04-22T10:29:48.833Z,69.60
2018-04-22T10:32:23.677Z,68.70
2018-04-22T10:34:58.898Z,68.60
2018-04-22T10:37:33.728Z,68.40
2018-04-22T10:40:09.424Z,69.20
2018-04-22T10:42:45.231Z,62.70
2018-04-22T10:45:20.064Z,62.50
2018-04-22T10:47:55.257Z,57.70
2018-04-22T10:50:30.339Z,55.30
2018-04-22T10:53:05.583Z,55.00
2018-04-22T10:55:41.021Z,55.70
2018-04-22T10:58:16.062Z,55.90
2018-04-22T11:00:51.641Z,55.40
2018-04-22T11:03:27.149Z,51.10
2018-04-22T11:06:02.390Z,51.00
2018-04-22T11:08:37.429Z,49.40
2018-04-22T11:11:13.897Z,48.80
2018-04-22T11:13:49.138Z,48.70
2018-04-22T11:16:24.728Z,51.00
2018-04-22T11:18:59.825Z,48.60
2018-04-22T11:21:35.674Z,48.90
2018-04-22T11:24:11.289Z,48.30
2018-04-22T11:26:46.155Z,48.20
2018-04-22T11:29:21.785Z,48.80
2018-04-22T11:31:57.408Z,48.30
2018-04-22T11:34:32.551Z,48.30
2018-04-22T11:37:07.530Z,49.80
2018-04-22T11:39:43.379Z,50.60
2018-04-22T11:42:19.249Z,49.60
2018-04-22T11:44:54.068Z,48.40
2018-04-22T11:47:29.511Z,48.00
2018-04-22T11:50:04.953Z,47.90
2018-04-22T11:52:40.397Z,46.60
2018-04-22T11:55:15.638Z,46.70
2018-04-22T11:57:50.678Z,46.50
2018-04-22T12:00:26.121Z,45.90
2018-04-22T12:03:01.157Z,45.20
2018-04-22T12:05:35.991Z,44.10
2018-04-22T12:08:11.589Z,44.90
2018-04-22T12:10:47.490Z,46.10
2018-04-22T12:13:22.525Z,47.80
2018-04-22T12:15:58.174Z,47.70
2018-04-22T12:18:33.007Z,48.60
2018-04-22T12:21:07.977Z,48.20
2018-04-22T12:23:43.080Z,46.90
2018-04-22T12:26:18.439Z,45.70
2018-04-22T12:28:53.726Z,45.90
2018-04-22T12:31:28.590Z,45.50
2018-04-22T12:34:04.647Z,47.10
2018-04-22T12:36:40.093Z,46.80
2018-04-22T12:39:15.133Z,46.40
2018-04-22T12:41:50.368Z,45.20
2018-04-22T12:44:25.203Z,45.90
2018-04-22T12:47:00.438Z,46.70
2018-04-22T12:49:35.733Z,46.20
2018-04-22T12:52:10.504Z,47.10
2018-04-22T12:54:45.749Z,46.10
2018-04-22T12:57:21.397Z,45.20
2018-04-22T12:59:56.433Z,45.70
2018-04-22T13:02:31.466Z,45.60
2018-04-22T13:05:06.706Z,47.30
2018-04-22T13:07:41.640Z,47.00
2018-04-22T13:10:16.674Z,46.50
2018-04-22T13:12:52.118Z,47.30
2018-04-22T13:15:26.953Z,47.90
2018-04-22T13:18:02.188Z,46.60
2018-04-22T13:20:37.222Z,44.90
2018-04-22T13:23:13.692Z,44.40
2018-04-22T13:25:48.587Z,44.40
2018-04-22T13:28:23.557Z,45.90
2018-04-22T13:30:58.796Z,47.50
2018-04-22T13:33:33.627Z,48.20
2018-04-22T13:36:09.071Z,47.70
2018-04-22T13:38:44.106Z,47.30
2018-04-22T13:41:19.508Z,47.80
2018-04-22T13:43:54.728Z,49.20
2018-04-22T13:46:30.236Z,50.80
2018-04-22T13:49:05.073Z,52.20
2018-04-22T13:51:40.311Z,53.60
2018-04-22T13:54:15.555Z,54.00
2018-04-22T13:56:50.499Z,53.90
2018-04-22T13:59:26.031Z,53.80
2018-04-22T14:02:01.272Z,54.20
2018-04-22T14:04:36.096Z,54.60
2018-04-22T14:07:11.133Z,54.10
2018-04-22T14:09:46.169Z,53.80
2018-04-22T14:12:21.408Z,53.60
2018-04-22T14:14:56.234Z,54.10
2018-04-22T14:17:31.067Z,53.80
2018-04-22T14:20:06.314Z,53.00
2018-04-22T14:22:41.969Z,53.20
2018-04-22T14:25:18.444Z,53.20
2018-04-22T14:27:53.417Z,53.20
2018-04-22T14:30:28.502Z,53.70
2018-04-22T14:33:04.048Z,53.60
2018-04-22T14:35:40.208Z,53.40
2018-04-22T14:38:15.378Z,53.60
2018-04-22T14:40:51.053Z,53.50
2018-04-22T14:43:26.952Z,53.50
2018-04-22T14:46:14.065Z,53.50
2018-04-22T14:49:01.181Z,53.20
2018-04-22T14:51:36.628Z,53.10
2018-04-22T14:54:12.279Z,52.90
2018-04-22T14:56:47.314Z,52.90
2018-04-22T14:59:22.760Z,52.20
2018-04-22T15:01:57.593Z,51.80
2018-04-22T15:04:33.192Z,52.40
2018-04-22T15:07:08.622Z,53.00
2018-04-22T15:09:44.027Z,52.40
2018-04-22T15:12:19.264Z,52.10
2018-04-22T15:14:54.307Z,52.30
2018-04-22T15:17:29.131Z,52.10
2018-04-22T15:20:04.169Z,52.80
2018-04-22T15:22:39.202Z,52.90
2018-04-22T15:25:14.381Z,52.50
2018-04-22T15:27:49.275Z,52.70
2018-04-22T15:30:24.513Z,52.30
2018-04-22T15:32:59.750Z,52.70
2018-04-22T15:35:34.790Z,53.30
2018-04-22T15:38:10.043Z,53.60
2018-04-22T15:40:45.275Z,53.90
2018-04-22T15:43:20.304Z,54.30
2018-04-22T15:45:55.749Z,54.80
2018-04-22T15:48:31.372Z,54.80
2018-04-22T15:51:06.642Z,55.00
2018-04-22T15:53:41.672Z,55.20
2018-04-22T15:56:16.714Z,55.50
2018-04-22T15:58:52.363Z,56.40
2018-04-22T16:01:28.009Z,56.90
2018-04-22T16:04:03.245Z,56.70
2018-04-22T16:06:38.492Z,57.10
2018-04-22T16:09:13.726Z,56.70
2018-04-22T16:11:49.588Z,57.80
2018-04-22T16:14:24.731Z,57.80
2018-04-22T16:16:59.969Z,58.50
2018-04-22T16:19:34.787Z,59.50
2018-04-22T16:22:09.990Z,59.60
2018-04-22T16:24:45.162Z,59.70
2018-04-22T16:27:20.103Z,59.80
2018-04-22T16:29:54.933Z,60.00
2018-04-22T16:32:29.905Z,59.80
2018-04-22T16:35:05.009Z,60.10
2018-04-22T16:37:40.036Z,59.80
2018-04-22T16:40:15.066Z,59.70
2018-04-22T16:42:50.510Z,59.80
2018-04-22T16:45:25.957Z,59.70
2018-04-22T16:48:01.205Z,59.70
2018-04-22T16:50:37.854Z,59.70
2018-04-22T16:53:12.601Z,59.70
2018-04-22T16:55:47.861Z,59.50
2018-04-22T16:58:23.222Z,58.70
2018-04-22T17:00:58.460Z,59.80
2018-04-22T17:03:34.696Z,60.10
2018-04-22T17:06:10.393Z,60.40
2018-04-22T17:08:45.675Z,60.30
2018-04-22T17:11:20.915Z,60.50
2018-04-22T17:13:56.213Z,60.70
2018-04-22T17:16:31.273Z,60.80
2018-04-22T17:19:06.297Z,60.90
2018-04-22T17:21:41.149Z,61.20
2018-04-22T17:24:17.043Z,61.50
2018-04-22T17:26:52.484Z,61.40
2018-04-22T17:29:28.107Z,60.80
2018-04-22T17:32:03.212Z,60.60
2018-04-22T17:34:38.490Z,61.00
2018-04-22T17:37:14.071Z,61.10
2018-04-22T17:39:50.624Z,61.20
2018-04-22T17:42:26.377Z,61.70
2018-04-22T17:45:01.694Z,61.60
2018-04-22T17:47:36.675Z,62.10
2018-04-22T17:50:11.970Z,62.40
2018-04-22T17:52:46.912Z,62.80
2018-04-22T17:55:22.041Z,63.30
2018-04-22T17:57:57.083Z,64.00
2018-04-22T18:00:31.908Z,64.40
2018-04-22T18:03:07.149Z,65.00
2018-04-22T18:05:42.385Z,65.60
2018-04-22T18:08:17.625Z,66.30
2018-04-22T18:10:52.811Z,66.80
2018-04-22T18:13:28.720Z,67.30
2018-04-22T18:16:03.959Z,67.70
2018-04-22T18:18:38.993Z,68.30
2018-04-22T18:21:14.645Z,68.80
2018-04-22T18:23:49.888Z,68.90
2018-04-22T18:26:25.227Z,69.40
2018-04-22T18:29:00.610Z,69.70
2018-04-22T18:31:35.709Z,70.10
2018-04-22T18:34:10.948Z,70.20
2018-04-22T18:36:46.211Z,70.20
2018-04-22T18:39:21.219Z,70.50
2018-04-22T18:41:57.639Z,70.90
2018-04-22T18:44:32.730Z,70.80
2018-04-22T18:47:07.976Z,71.00
2018-04-22T18:49:42.945Z,71.00
2018-04-22T18:52:17.982Z,71.20
2018-04-22T18:54:53.073Z,71.30
2018-04-22T18:57:28.124Z,71.30
2018-04-22T19:00:03.963Z,71.40
2018-04-22T19:02:39.202Z,71.30
2018-04-22T19:05:15.266Z,71.80
2018-04-22T19:07:50.708Z,71.80
2018-04-22T19:10:25.944Z,72.10
2018-04-22T19:13:00.993Z,72.30
2018-04-22T19:15:36.055Z,72.30
2018-04-22T19:18:11.616Z,72.40
2018-04-22T19:20:46.906Z,72.00
2018-04-22T19:23:21.989Z,71.90
2018-04-22T19:25:57.281Z,71.00
2018-04-22T19:28:32.885Z,71.10
2018-04-22T19:31:08.468Z,71.00
2018-04-22T19:33:44.644Z,69.90
2018-04-22T19:36:20.640Z,69.80
2018-04-22T19:38:56.354Z,69.70
2018-04-22T19:41:31.811Z,69.00
2018-04-22T19:44:07.035Z,69.00
2018-04-22T19:46:42.663Z,68.40
2018-04-22T19:49:17.932Z,68.30
2018-04-22T19:51:53.983Z,69.10
2018-04-22T19:54:30.449Z,69.10
2018-04-22T19:57:07.199Z,69.70
2018-04-22T19:59:42.169Z,69.60
2018-04-22T20:02:17.278Z,70.20
2018-04-22T20:04:52.230Z,70.20
2018-04-22T20:07:27.060Z,71.70
2018-04-22T20:10:02.304Z,72.70
2018-04-22T20:12:37.185Z,73.10
2018-04-22T20:15:13.189Z,73.70
2018-04-22T20:17:48.842Z,73.70
2018-04-22T20:20:25.718Z,74.10
2018-04-22T20:23:00.688Z,74.10
2018-04-22T20:25:36.022Z,74.60
2018-04-22T20:28:11.026Z,75.50
2018-04-22T20:30:47.297Z,76.70
2018-04-22T20:33:22.742Z,76.50
2018-04-22T20:35:58.040Z,76.40
2018-04-22T20:38:33.968Z,76.80
2018-04-22T20:41:09.117Z,77.30
2018-04-22T20:43:44.412Z,78.00
2018-04-22T20:46:19.810Z,78.50
2018-04-22T20:48:56.642Z,79.00
2018-04-22T20:51:32.383Z,78.90
2018-04-22T20:54:08.453Z,80.30
2018-04-22T20:56:43.887Z,80.30
2018-04-22T20:59:18.925Z,80.80
2018-04-22T21:01:53.961Z,80.90
2018-04-22T21:04:28.789Z,81.50
2018-04-22T21:07:03.855Z,82.30
2018-04-22T21:09:39.087Z,82.60
2018-04-22T21:12:14.067Z,82.80
2018-04-22T21:14:49.372Z,83.40
2018-04-22T21:17:26.475Z,83.40
2018-04-22T21:20:02.607Z,83.40
2018-04-22T21:22:38.246Z,83.60
2018-04-22T21:25:13.685Z,83.90
2018-04-22T21:27:49.335Z,86.10
2018-04-22T21:30:25.327Z,86.10
2018-04-22T21:33:00.170Z,86.90
2018-04-22T21:35:35.463Z,88.30
2018-04-22T21:38:10.891Z,89.30
2018-04-22T21:40:45.874Z,89.50
2018-04-22T21:43:23.169Z,90.40
2018-04-22T21:45:59.491Z,90.60
2018-04-22T21:48:35.150Z,90.50
2018-04-22T21:51:09.970Z,90.80
2018-04-22T21:53:45.212Z,90.90
2018-04-22T21:56:20.453Z,91.30
2018-04-22T21:58:55.648Z,91.70
2018-04-22T22:01:31.148Z,91.70
2018-04-22T22:04:06.171Z,91.80
2018-04-22T22:06:41.202Z,92.60
2018-04-22T22:09:16.443Z,93.00
2018-04-22T22:11:51.384Z,93.60
2018-04-22T22:14:26.736Z,93.60
2018-04-22T22:17:02.591Z,93.70
2018-04-22T22:19:37.815Z,93.70
2018-04-22T22:22:12.848Z,94.20
2018-04-22T22:24:47.884Z,94.80
2018-04-22T22:27:23.642Z,95.30
2018-04-22T22:29:58.847Z,95.40
2018-04-22T22:32:33.714Z,95.60
2018-04-22T22:35:09.768Z,96.00
2018-04-22T22:37:45.240Z,96.00
2018-04-22T22:40:20.904Z,96.40
2018-04-22T22:42:56.610Z,96.40
2018-04-22T22:45:32.410Z,96.60
2018-04-22T22:48:08.328Z,97.00
2018-04-22T22:50:43.359Z,97.10
2018-04-22T22:53:19.229Z,98.20
2018-04-22T22:55:54.458Z,98.20
2018-04-22T22:58:29.692Z,98.40
2018-04-22T23:01:04.931Z,98.10
2018-04-22T23:03:39.864Z,97.80
2018-04-22T23:06:15.309Z,97.80
2018-04-22T23:08:50.420Z,97.90
2018-04-22T23:11:26.400Z,98.10
2018-04-22T23:14:01.445Z,98.20
2018-04-22T23:16:37.094Z,97.60
2018-04-22T23:19:12.336Z,97.30
2018-04-22T23:21:47.881Z,97.00
2018-04-22T23:24:24.079Z,96.60
2018-04-22T23:26:59.908Z,96.40
2018-04-22T23:29:35.745Z,96.20
2018-04-22T23:32:11.466Z,96.20
2018-04-22T23:34:46.737Z,96.10
2018-04-22T23:37:22.194Z,96.10
2018-04-22T23:39:57.220Z,96.10
2018-04-22T23:42:33.112Z,95.90
2018-04-22T23:45:07.897Z,95.50
2018-04-22T23:47:42.739Z,95.40
2018-04-22T23:50:18.107Z,95.10
2018-04-22T23:52:54.182Z,95.20
2018-04-22T23:55:29.369Z,95.00
2018-04-22T23:58:06.013Z,94.50
